createdAt,value
2017-08-07T00:01:05.778Z,93.00
2017-08-07T00:03:34.096Z,93.30
2017-08-07T00:06:03.154Z,92.90
2017-08-07T00:08:31.483Z,93.00
2017-08-07T00:10:59.772Z,92.90
2017-08-07T00:13:28.071Z,92.90
2017-08-07T00:15:56.443Z,92.90
2017-08-07T00:18:24.764Z,92.70
2017-08-07T00:20:53.812Z,93.00
2017-08-07T00:23:22.530Z,93.00
2017-08-07T00:25:51.036Z,92.90
2017-08-07T00:28:19.324Z,92.80
2017-08-07T00:30:47.616Z,92.90
2017-08-07T00:33:15.932Z,92.80
2017-08-07T00:35:44.988Z,92.90
2017-08-07T00:38:13.408Z,92.90
2017-08-07T00:40:41.683Z,93.00
2017-08-07T00:43:10.189Z,93.00
2017-08-07T00:45:38.462Z,93.00
2017-08-07T00:48:06.768Z,93.00
2017-08-07T00:50:35.069Z,93.10
2017-08-07T00:53:04.156Z,93.20
2017-08-07T00:55:32.447Z,93.20
2017-08-07T00:58:00.834Z,93.20
2017-08-07T01:00:29.152Z,93.00
2017-08-07T01:02:58.203Z,92.80
2017-08-07T01:05:26.536Z,93.10
2017-08-07T01:07:54.815Z,93.10
2017-08-07T01:10:23.216Z,93.00
2017-08-07T01:12:51.519Z,92.90
2017-08-07T01:15:20.598Z,93.10
2017-08-07T01:17:49.519Z,93.10
2017-08-07T01:20:17.795Z,93.00
2017-08-07T01:22:46.125Z,92.90
2017-08-07T01:25:14.471Z,92.90
2017-08-07T01:27:42.972Z,93.10
2017-08-07T01:30:11.264Z,93.10
2017-08-07T01:32:39.552Z,92.80
2017-08-07T01:35:07.864Z,92.70
2017-08-07T01:37:36.916Z,92.60
2017-08-07T01:40:05.330Z,92.60
2017-08-07T01:42:33.732Z,93.10
2017-08-07T01:45:02.015Z,93.30
2017-08-07T01:47:30.302Z,93.30
2017-08-07T01:49:58.696Z,93.00
2017-08-07T01:52:27.001Z,92.90
2017-08-07T01:54:55.383Z,92.90
2017-08-07T01:57:23.668Z,93.10
2017-08-07T01:59:51.999Z,93.10
2017-08-07T02:02:20.339Z,93.00
2017-08-07T02:04:48.640Z,92.60
2017-08-07T02:07:16.944Z,92.50
2017-08-07T02:09:45.996Z,92.50
2017-08-07T02:12:14.328Z,92.50
2017-08-07T02:14:42.621Z,92.70
2017-08-07T02:17:10.940Z,92.90
2017-08-07T02:19:39.230Z,93.00
2017-08-07T02:22:07.557Z,92.70
2017-08-07T02:24:35.872Z,92.70
2017-08-07T02:27:04.255Z,92.80
2017-08-07T02:29:32.544Z,92.90
2017-08-07T02:32:00.832Z,93.10
2017-08-07T02:34:29.136Z,93.40
2017-08-07T02:36:57.455Z,93.50
2017-08-07T02:39:25.804Z,93.50
2017-08-07T02:41:54.115Z,93.10
2017-08-07T02:44:23.207Z,93.10
2017-08-07T02:46:51.721Z,93.00
2017-08-07T02:49:20.765Z,93.00
2017-08-07T02:51:49.100Z,93.00
2017-08-07T02:54:17.483Z,93.30
2017-08-07T02:56:45.789Z,93.70
2017-08-07T02:59:14.100Z,93.80
2017-08-07T03:01:42.460Z,93.80
2017-08-07T03:04:10.843Z,93.70
2017-08-07T03:06:39.151Z,93.60
2017-08-07T03:09:07.440Z,93.50
2017-08-07T03:11:35.822Z,93.50
2017-08-07T03:14:04.126Z,93.40
2017-08-07T03:16:33.179Z,93.40
2017-08-07T03:19:01.501Z,93.40
2017-08-07T03:21:29.789Z,93.40
2017-08-07T03:23:58.095Z,93.10
2017-08-07T03:26:26.373Z,93.00
2017-08-07T03:28:54.687Z,93.30
2017-08-07T03:31:23.876Z,93.00
2017-08-07T03:33:52.182Z,92.90
2017-08-07T03:36:21.240Z,92.80
2017-08-07T03:38:49.550Z,92.80
2017-08-07T03:41:17.835Z,92.70
2017-08-07T03:43:46.232Z,92.70
2017-08-07T03:46:14.511Z,92.90
2017-08-07T03:48:42.804Z,92.80
2017-08-07T03:51:11.295Z,92.80
2017-08-07T03:53:39.581Z,93.00
2017-08-07T03:56:07.901Z,93.20
2017-08-07T03:58:36.179Z,93.20
2017-08-07T04:01:04.562Z,92.90
2017-08-07T04:03:32.874Z,93.00
2017-08-07T04:06:01.933Z,93.70
2017-08-07T04:08:30.248Z,93.50
2017-08-07T04:10:58.568Z,93.30
2017-08-07T04:13:27.648Z,92.70
2017-08-07T04:15:55.931Z,92.70
2017-08-07T04:18:24.256Z,92.40
2017-08-07T04:20:53.312Z,92.40
2017-08-07T04:23:21.619Z,92.40
2017-08-07T04:25:49.936Z,92.50
2017-08-07T04:28:19.016Z,92.10
2017-08-07T04:30:47.296Z,92.10
2017-08-07T04:33:15.615Z,91.60
2017-08-07T04:35:43.904Z,91.60
2017-08-07T04:38:12.289Z,91.50
2017-08-07T04:40:40.766Z,91.60
2017-08-07T04:43:09.049Z,91.40
2017-08-07T04:45:37.357Z,91.40
2017-08-07T04:48:06.607Z,91.20
2017-08-07T04:50:34.897Z,91.10
2017-08-07T04:53:03.180Z,91.10
2017-08-07T04:55:32.250Z,90.70
2017-08-07T04:58:00.524Z,90.70
2017-08-07T05:00:28.826Z,90.70
2017-08-07T05:02:57.117Z,90.90
2017-08-07T05:05:25.445Z,91.10
2017-08-07T05:07:54.618Z,91.00
2017-08-07T05:10:22.908Z,91.00
2017-08-07T05:12:51.182Z,90.80
2017-08-07T05:15:19.591Z,90.60
2017-08-07T05:17:47.899Z,90.30
2017-08-07T05:20:16.942Z,90.00
2017-08-07T05:22:45.255Z,90.00
2017-08-07T05:25:13.540Z,89.70
2017-08-07T05:27:41.843Z,89.40
2017-08-07T05:30:10.137Z,88.40
2017-08-07T05:32:38.477Z,87.70
2017-08-07T05:35:06.812Z,87.20
2017-08-07T05:37:35.094Z,88.40
2017-08-07T05:40:03.527Z,87.30
2017-08-07T05:42:32.572Z,86.20
2017-08-07T05:45:00.861Z,86.10
2017-08-07T05:47:29.284Z,85.20
2017-08-07T05:49:57.559Z,85.00
2017-08-07T05:52:25.843Z,83.90
2017-08-07T05:54:54.175Z,83.70
2017-08-07T05:57:22.456Z,83.40
2017-08-07T05:59:50.758Z,82.40
2017-08-07T06:02:19.935Z,80.30
2017-08-07T06:04:48.215Z,80.30
2017-08-07T06:07:16.501Z,79.40
2017-08-07T06:09:44.814Z,80.10
2017-08-07T06:12:13.094Z,80.00
2017-08-07T06:14:41.409Z,80.90
2017-08-07T06:17:10.508Z,80.10
2017-08-07T06:19:38.987Z,79.90
2017-08-07T06:22:07.274Z,78.50
2017-08-07T06:24:35.569Z,76.80
2017-08-07T06:27:03.968Z,75.90
2017-08-07T06:29:32.278Z,78.00
2017-08-07T06:32:01.364Z,75.80
2017-08-07T06:34:29.670Z,75.80
2017-08-07T06:36:58.759Z,74.40
2017-08-07T06:39:27.060Z,74.30
2017-08-07T06:41:55.348Z,73.20
2017-08-07T06:44:23.658Z,74.20
2017-08-07T06:46:52.059Z,71.30
2017-08-07T06:49:20.395Z,72.50
2017-08-07T06:51:48.711Z,72.40
2017-08-07T06:54:17.803Z,69.40
2017-08-07T06:56:46.117Z,69.90
2017-08-07T06:59:15.154Z,67.90
2017-08-07T07:01:43.484Z,67.90
2017-08-07T07:04:11.771Z,67.20
2017-08-07T07:06:40.057Z,65.80
2017-08-07T07:09:08.450Z,67.30
2017-08-07T07:11:36.752Z,66.00
2017-08-07T07:14:05.084Z,66.90
2017-08-07T07:16:33.368Z,66.60
2017-08-07T07:19:01.660Z,64.50
2017-08-07T07:21:30.017Z,64.60
2017-08-07T07:23:58.290Z,64.90
2017-08-07T07:26:26.571Z,63.10
2017-08-07T07:28:54.884Z,62.30
2017-08-07T07:31:23.254Z,61.40
2017-08-07T07:33:51.539Z,63.60
2017-08-07T07:36:19.836Z,60.20
2017-08-07T07:38:48.222Z,59.60
2017-08-07T07:41:16.724Z,59.30
2017-08-07T07:43:45.012Z,60.30
2017-08-07T07:46:13.308Z,60.50
2017-08-07T07:48:41.627Z,57.60
2017-08-07T07:51:10.675Z,58.70
2017-08-07T07:53:38.997Z,58.60
2017-08-07T07:56:07.271Z,58.30
2017-08-07T07:58:35.599Z,58.50
2017-08-07T08:01:04.684Z,57.30
2017-08-07T08:03:32.980Z,57.30
2017-08-07T08:06:01.282Z,57.40
2017-08-07T08:08:30.367Z,58.00
2017-08-07T08:10:58.671Z,58.00
2017-08-07T08:13:27.766Z,57.30
2017-08-07T08:15:56.071Z,56.60
2017-08-07T08:18:25.356Z,56.10
2017-08-07T08:20:53.647Z,56.00
2017-08-07T08:23:22.143Z,55.60
2017-08-07T08:25:50.472Z,54.90
2017-08-07T08:28:18.828Z,54.10
2017-08-07T08:30:47.143Z,52.70
2017-08-07T08:33:16.224Z,51.60
2017-08-07T08:35:44.540Z,51.60
2017-08-07T08:38:13.724Z,54.80
2017-08-07T08:40:42.106Z,54.70
2017-08-07T08:43:10.435Z,54.10
2017-08-07T08:45:39.475Z,53.90
2017-08-07T08:48:07.768Z,53.90
2017-08-07T08:50:36.257Z,52.90
2017-08-07T08:53:04.679Z,55.90
2017-08-07T08:55:32.976Z,54.40
2017-08-07T08:58:01.370Z,52.50
2017-08-07T09:00:29.643Z,52.10
2017-08-07T09:02:58.038Z,51.20
2017-08-07T09:05:26.354Z,51.50
2017-08-07T09:07:55.760Z,50.10
2017-08-07T09:10:24.134Z,51.30
2017-08-07T09:12:52.447Z,49.90
2017-08-07T09:15:21.531Z,50.60
2017-08-07T09:17:49.933Z,50.60
2017-08-07T09:20:18.325Z,50.40
2017-08-07T09:22:46.630Z,48.40
2017-08-07T09:25:15.684Z,50.50
2017-08-07T09:27:44.003Z,50.00
2017-08-07T09:30:12.324Z,51.20
2017-08-07T09:32:41.400Z,50.00
2017-08-07T09:35:09.706Z,49.90
2017-08-07T09:37:38.804Z,46.30
2017-08-07T09:40:07.200Z,46.30
2017-08-07T09:42:35.693Z,46.00
2017-08-07T09:45:03.973Z,46.50
2017-08-07T09:47:32.246Z,45.70
2017-08-07T09:50:00.646Z,50.20
2017-08-07T09:52:28.947Z,50.00
2017-08-07T09:54:57.445Z,48.20
2017-08-07T09:57:25.822Z,48.00
2017-08-07T09:59:54.111Z,49.60
2017-08-07T10:02:22.512Z,47.50
2017-08-07T10:04:50.804Z,47.50
2017-08-07T10:07:19.078Z,49.10
2017-08-07T10:09:47.395Z,48.50
2017-08-07T10:12:16.478Z,46.60
2017-08-07T10:14:44.764Z,46.60
2017-08-07T10:17:13.167Z,48.50
2017-08-07T10:19:41.547Z,45.80
2017-08-07T10:22:09.827Z,48.20
2017-08-07T10:24:38.226Z,47.50
2017-08-07T10:27:06.507Z,47.80
2017-08-07T10:29:34.814Z,48.50
2017-08-07T10:32:03.132Z,50.80
2017-08-07T10:34:32.180Z,47.60
2017-08-07T10:37:00.487Z,47.60
2017-08-07T10:39:28.770Z,46.50
2017-08-07T10:41:57.090Z,42.60
2017-08-07T10:44:25.418Z,43.70
2017-08-07T10:46:53.707Z,45.90
2017-08-07T10:49:22.151Z,43.00
2017-08-07T10:51:50.423Z,44.30
2017-08-07T10:54:18.698Z,44.20
2017-08-07T10:56:47.020Z,45.00
2017-08-07T10:59:15.295Z,44.40
2017-08-07T11:01:43.612Z,45.20
2017-08-07T11:04:12.712Z,48.50
2017-08-07T11:06:41.095Z,48.50
2017-08-07T11:09:09.479Z,49.70
2017-08-07T11:11:37.780Z,51.10
2017-08-07T11:14:06.170Z,47.20
2017-08-07T11:16:34.547Z,45.00
2017-08-07T11:19:02.852Z,42.90
2017-08-07T11:21:31.230Z,44.90
2017-08-07T11:23:59.552Z,41.90
2017-08-07T11:26:28.620Z,41.80
2017-08-07T11:28:56.916Z,41.80
2017-08-07T11:31:25.319Z,41.50
2017-08-07T11:33:53.712Z,40.80
2017-08-07T11:36:22.204Z,39.60
2017-08-07T11:38:50.479Z,38.90
2017-08-07T11:41:18.796Z,38.50
2017-08-07T11:43:47.886Z,40.40
2017-08-07T11:46:16.204Z,40.30
2017-08-07T11:48:45.256Z,40.20
2017-08-07T11:51:13.676Z,40.10
2017-08-07T11:53:41.954Z,39.30
2017-08-07T11:56:10.277Z,37.70
2017-08-07T11:58:39.455Z,40.30
2017-08-07T12:01:07.771Z,40.30
2017-08-07T12:03:36.872Z,38.80
2017-08-07T12:06:05.186Z,39.20
2017-08-07T12:08:34.260Z,41.10
2017-08-07T12:11:02.576Z,41.00
2017-08-07T12:13:31.752Z,42.20
2017-08-07T12:16:00.032Z,42.10
2017-08-07T12:18:28.440Z,41.50
2017-08-07T12:20:56.823Z,43.00
2017-08-07T12:23:25.229Z,41.90
2017-08-07T12:25:53.610Z,37.60
2017-08-07T12:28:22.098Z,41.20
2017-08-07T12:30:50.375Z,36.90
2017-08-07T12:33:18.793Z,36.40
2017-08-07T12:35:47.066Z,38.60
2017-08-07T12:38:15.392Z,41.10
2017-08-07T12:40:44.467Z,40.80
2017-08-07T12:43:12.856Z,40.80
2017-08-07T12:45:41.145Z,40.10
2017-08-07T12:48:09.546Z,38.30
2017-08-07T12:50:38.034Z,34.60
2017-08-07T12:53:06.319Z,38.80
2017-08-07T12:55:34.609Z,36.30
2017-08-07T12:58:02.998Z,37.70
2017-08-07T13:00:31.406Z,36.40
2017-08-07T13:03:00.507Z,39.10
2017-08-07T13:05:28.787Z,39.00
2017-08-07T13:07:57.104Z,37.60
2017-08-07T13:10:25.470Z,38.30
2017-08-07T13:12:53.788Z,38.90
2017-08-07T13:15:22.880Z,36.80
2017-08-07T13:17:51.268Z,36.70
2017-08-07T13:20:19.582Z,37.20
2017-08-07T13:22:48.650Z,39.10
2017-08-07T13:25:17.060Z,39.00
2017-08-07T13:27:45.443Z,38.10
2017-08-07T13:30:13.830Z,37.30
2017-08-07T13:32:42.149Z,39.10
2017-08-07T13:35:11.193Z,35.30
2017-08-07T13:37:39.528Z,35.30
2017-08-07T13:40:07.852Z,40.00
2017-08-07T13:42:36.598Z,35.40
2017-08-07T13:45:04.904Z,36.30
2017-08-07T13:47:33.215Z,36.30
2017-08-07T13:50:02.291Z,39.00
2017-08-07T13:52:30.628Z,39.00
2017-08-07T13:54:58.917Z,39.20
2017-08-07T13:57:27.263Z,40.20
2017-08-07T13:59:55.551Z,41.00
2017-08-07T14:02:23.873Z,41.80
2017-08-07T14:04:52.962Z,38.50
2017-08-07T14:07:21.348Z,38.50
2017-08-07T14:09:49.727Z,37.10
2017-08-07T14:12:18.016Z,39.10
2017-08-07T14:14:46.322Z,39.60
2017-08-07T14:17:14.708Z,38.10
2017-08-07T14:19:42.997Z,38.30
2017-08-07T14:22:11.388Z,38.90
2017-08-07T14:24:39.778Z,38.00
2017-08-07T14:27:08.104Z,38.00
2017-08-07T14:29:36.450Z,38.80
2017-08-07T14:32:04.768Z,40.00
2017-08-07T14:34:33.865Z,39.90
2017-08-07T14:37:02.240Z,39.90
2017-08-07T14:39:30.532Z,37.70
2017-08-07T14:41:58.956Z,37.10
2017-08-07T14:44:28.022Z,39.10
2017-08-07T14:46:56.294Z,39.00
2017-08-07T14:49:24.710Z,35.60
2017-08-07T14:51:52.982Z,37.20
2017-08-07T14:54:21.390Z,37.80
2017-08-07T14:56:50.041Z,36.30
2017-08-07T14:59:18.392Z,36.20
2017-08-07T15:01:46.717Z,36.70
2017-08-07T15:04:15.067Z,38.30
2017-08-07T15:06:43.460Z,39.20
2017-08-07T15:09:11.730Z,39.90
2017-08-07T15:11:40.038Z,39.70
2017-08-07T15:14:08.325Z,40.20
2017-08-07T15:16:36.721Z,40.70
2017-08-07T15:19:05.103Z,39.20
2017-08-07T15:21:33.411Z,37.40
2017-08-07T15:24:01.791Z,34.70
2017-08-07T15:26:30.072Z,31.80
2017-08-07T15:28:58.365Z,30.10
2017-08-07T15:31:26.669Z,29.80
2017-08-07T15:33:55.036Z,26.80
2017-08-07T15:36:23.352Z,26.40
2017-08-07T15:38:51.631Z,25.10
2017-08-07T15:41:19.902Z,24.70
2017-08-07T15:43:48.312Z,25.80
2017-08-07T15:46:16.700Z,24.30
2017-08-07T15:48:45.094Z,24.20
2017-08-07T15:51:13.488Z,23.30
2017-08-07T15:53:41.875Z,24.20
2017-08-07T15:56:10.263Z,24.30
2017-08-07T15:58:38.646Z,23.50
2017-08-07T16:01:06.927Z,23.40
2017-08-07T16:03:35.223Z,23.80
2017-08-07T16:06:03.618Z,24.70
2017-08-07T16:08:31.927Z,23.10
2017-08-07T16:11:00.298Z,23.10
2017-08-07T16:13:28.615Z,22.90
2017-08-07T16:15:57.704Z,22.90
2017-08-07T16:18:25.992Z,22.90
2017-08-07T16:20:54.697Z,22.10
2017-08-07T16:23:22.971Z,22.30
2017-08-07T16:25:51.292Z,21.50
2017-08-07T16:28:20.380Z,21.20
2017-08-07T16:30:48.763Z,21.20
2017-08-07T16:33:17.071Z,21.10
2017-08-07T16:35:45.452Z,21.90
2017-08-07T16:38:13.840Z,20.70
2017-08-07T16:40:42.124Z,21.40
2017-08-07T16:43:10.769Z,22.20
2017-08-07T16:45:39.206Z,21.00
2017-08-07T16:48:07.622Z,22.40
2017-08-07T16:50:36.055Z,23.20
2017-08-07T16:53:04.400Z,23.20
2017-08-07T16:55:32.758Z,24.60
2017-08-07T16:58:01.089Z,25.30
2017-08-07T17:00:30.273Z,28.00
2017-08-07T17:02:58.570Z,27.40
2017-08-07T17:05:26.972Z,29.00
2017-08-07T17:07:55.293Z,30.90
2017-08-07T17:10:23.629Z,33.20
2017-08-07T17:12:51.944Z,35.30
2017-08-07T17:15:20.232Z,35.20
2017-08-07T17:17:48.519Z,38.20
2017-08-07T17:20:16.914Z,37.70
2017-08-07T17:22:46.001Z,39.40
2017-08-07T17:25:14.275Z,38.70
2017-08-07T17:27:42.699Z,44.20
2017-08-07T17:30:10.975Z,43.10
2017-08-07T17:32:39.282Z,41.80
2017-08-07T17:35:07.655Z,44.70
2017-08-07T17:37:36.044Z,46.10
2017-08-07T17:40:04.344Z,45.80
2017-08-07T17:42:32.664Z,46.40
2017-08-07T17:45:01.734Z,48.00
2017-08-07T17:47:30.138Z,48.00
2017-08-07T17:49:58.439Z,50.30
2017-08-07T17:52:27.492Z,51.40
2017-08-07T17:54:55.802Z,50.80
2017-08-07T17:57:24.088Z,51.10
2017-08-07T17:59:52.415Z,54.20
2017-08-07T18:02:21.495Z,55.80
2017-08-07T18:04:49.778Z,55.50
2017-08-07T18:07:18.186Z,57.10
2017-08-07T18:09:46.566Z,58.40
2017-08-07T18:12:14.951Z,57.00
2017-08-07T18:14:43.258Z,57.00
2017-08-07T18:17:11.548Z,58.40
2017-08-07T18:19:39.864Z,60.20
2017-08-07T18:22:08.953Z,60.40
2017-08-07T18:24:37.227Z,60.40
2017-08-07T18:27:05.603Z,62.10
2017-08-07T18:29:34.017Z,62.20
2017-08-07T18:32:02.304Z,63.70
2017-08-07T18:34:30.622Z,65.70
2017-08-07T18:36:59.804Z,66.00
2017-08-07T18:39:28.088Z,65.90
2017-08-07T18:41:56.379Z,66.00
2017-08-07T18:44:24.777Z,66.50
2017-08-07T18:46:53.065Z,67.90
2017-08-07T18:49:21.363Z,68.20
2017-08-07T18:51:49.739Z,68.10
2017-08-07T18:54:18.024Z,68.50
2017-08-07T18:56:46.419Z,69.40
2017-08-07T18:59:14.695Z,69.10
2017-08-07T19:01:43.100Z,70.50
2017-08-07T19:04:11.455Z,71.30
2017-08-07T19:06:39.779Z,70.70
2017-08-07T19:09:08.087Z,70.00
2017-08-07T19:11:37.153Z,71.00
2017-08-07T19:14:05.455Z,70.40
2017-08-07T19:16:33.850Z,71.60
2017-08-07T19:19:02.135Z,72.50
2017-08-07T19:21:30.442Z,72.80
2017-08-07T19:23:58.754Z,73.60
2017-08-07T19:26:27.849Z,75.00
2017-08-07T19:28:56.942Z,76.20
2017-08-07T19:31:25.320Z,75.20
2017-08-07T19:33:53.815Z,75.80
2017-08-07T19:36:22.312Z,76.70
2017-08-07T19:38:50.698Z,76.40
2017-08-07T19:41:19.013Z,77.10
2017-08-07T19:43:47.323Z,78.30
2017-08-07T19:46:15.607Z,78.60
2017-08-07T19:48:44.686Z,79.30
2017-08-07T19:51:12.993Z,79.30
2017-08-07T19:53:42.171Z,81.20
2017-08-07T19:56:10.588Z,81.10
2017-08-07T19:58:38.914Z,81.00
2017-08-07T20:01:07.197Z,81.00
2017-08-07T20:03:35.512Z,80.40
2017-08-07T20:06:03.939Z,81.10
2017-08-07T20:08:32.225Z,81.50
2017-08-07T20:11:00.625Z,82.00
2017-08-07T20:13:29.103Z,82.10
2017-08-07T20:15:57.387Z,82.30
2017-08-07T20:18:25.694Z,83.00
2017-08-07T20:20:54.171Z,82.80
2017-08-07T20:23:22.579Z,82.70
2017-08-07T20:25:50.868Z,82.30
2017-08-07T20:28:19.142Z,81.70
2017-08-07T20:30:47.632Z,82.00
2017-08-07T20:33:15.936Z,82.00
2017-08-07T20:35:44.323Z,82.00
2017-08-07T20:38:12.636Z,82.50
2017-08-07T20:40:41.728Z,83.00
2017-08-07T20:43:10.017Z,82.90
2017-08-07T20:45:38.407Z,83.10
2017-08-07T20:48:06.700Z,83.70
2017-08-07T20:50:35.011Z,83.90
2017-08-07T20:53:04.092Z,84.40
2017-08-07T20:55:32.402Z,84.40
2017-08-07T20:58:01.489Z,85.40
2017-08-07T21:00:29.783Z,85.40
2017-08-07T21:02:58.144Z,85.30
2017-08-07T21:05:26.433Z,85.60
2017-08-07T21:07:55.012Z,85.90
2017-08-07T21:10:23.349Z,86.00
2017-08-07T21:12:51.635Z,85.90
2017-08-07T21:15:20.015Z,86.10
2017-08-07T21:17:48.323Z,86.20
2017-08-07T21:20:16.777Z,86.20
2017-08-07T21:22:45.061Z,86.00
2017-08-07T21:25:14.075Z,86.10
2017-08-07T21:27:42.377Z,86.50
2017-08-07T21:30:10.678Z,86.80
2017-08-07T21:32:40.738Z,86.10
2017-08-07T21:35:09.188Z,86.10
2017-08-07T21:37:37.528Z,86.60
2017-08-07T21:40:05.820Z,86.80
2017-08-07T21:42:34.129Z,86.80
2017-08-07T21:45:02.465Z,86.40
2017-08-07T21:47:30.808Z,86.40
2017-08-07T21:49:59.125Z,86.80
2017-08-07T21:52:27.432Z,87.00
2017-08-07T21:54:55.735Z,87.70
2017-08-07T21:57:24.793Z,87.50
2017-08-07T21:59:53.113Z,87.50
2017-08-07T22:02:21.387Z,87.10
2017-08-07T22:04:49.672Z,87.40
2017-08-07T22:07:17.979Z,87.10
2017-08-07T22:09:46.270Z,86.80
2017-08-07T22:12:14.552Z,86.40
2017-08-07T22:14:42.950Z,86.50
2017-08-07T22:17:11.232Z,86.80
2017-08-07T22:19:39.539Z,86.00
2017-08-07T22:22:08.586Z,85.90
2017-08-07T22:24:36.903Z,86.30
2017-08-07T22:27:05.323Z,86.80
2017-08-07T22:29:33.711Z,87.10
2017-08-07T22:32:02.000Z,86.50
2017-08-07T22:34:30.284Z,86.70
2017-08-07T22:36:58.594Z,87.00
2017-08-07T22:39:27.685Z,87.20
2017-08-07T22:41:55.958Z,86.90
2017-08-07T22:44:24.266Z,86.80
2017-08-07T22:46:52.660Z,87.60
2017-08-07T22:49:20.993Z,88.20
2017-08-07T22:51:49.308Z,88.50
2017-08-07T22:54:18.440Z,89.40
2017-08-07T22:56:46.935Z,89.30
2017-08-07T22:59:15.210Z,90.00
2017-08-07T23:01:43.491Z,90.00
2017-08-07T23:04:11.811Z,90.10
2017-08-07T23:06:40.140Z,90.20
2017-08-07T23:09:08.488Z,90.30
2017-08-07T23:11:37.592Z,90.10
2017-08-07T23:14:05.941Z,90.10
2017-08-07T23:16:34.223Z,90.30
2017-08-07T23:19:02.564Z,90.30
2017-08-07T23:21:30.884Z,90.30
2017-08-07T23:23:59.960Z,90.10
2017-08-07T23:26:28.267Z,90.10
2017-08-07T23:28:57.322Z,90.30
2017-08-07T23:31:25.666Z,90.30
2017-08-07T23:33:53.991Z,90.10
2017-08-07T23:36:22.284Z,90.20
2017-08-07T23:38:50.584Z,89.80
2017-08-07T23:41:18.905Z,90.10
2017-08-07T23:43:47.236Z,90.00
2017-08-07T23:46:15.534Z,90.20
2017-08-07T23:48:43.820Z,90.30
2017-08-07T23:51:12.169Z,90.60
2017-08-07T23:53:40.442Z,90.50
2017-08-07T23:56:08.767Z,90.30
2017-08-07T23:58:37.225Z,90.50
